Terminal Aerodrome Forecast
Issued by NWS

Home | Current Version | Previous Version | Text Only | Print | Product List | Glossary Off
Versions: 1 2 3 4 5 6 7 8 9 10 11 12 13 14 15 16 17 18 19 20 21 22 23 24 25 26

000
FTUS42 KMHX 010500
TAFOAJ
TAF
KOAJ 010539Z 0106/0206 00000KT 4SM BR SCT005
      TEMPO 0108/0112 2SM BR SCT005
     FM011300 02006KT P6SM FEW025
     FM020000 00000KT P6SM SKC
      AMD LTD TO CLD VIS AND WIND=

USA.gov is the U.S. government's official web portal to all federal, state and local government web resources and services.